sensor_id;sensor_type;location;lat;lon;timestamp;pressure;altitude;pressure_sealevel;temperature;humidity
26443;BME280;5563;52.296;6.806;2023-04-26T00:01:01;101763.06;;;2.39;78.24
26443;BME280;5563;52.296;6.806;2023-04-26T00:03:37;101771.66;;;2.44;79.03
26443;BME280;5563;52.296;6.806;2023-04-26T00:06:06;101780.41;;;2.45;79.03
26443;BME280;5563;52.296;6.806;2023-04-26T00:08:48;101772.59;;;2.42;78.98
26443;BME280;5563;52.296;6.806;2023-04-26T00:11:15;101770.19;;;2.36;79.04
26443;BME280;5563;52.296;6.806;2023-04-26T00:13:49;101784.16;;;2.38;79.06
26443;BME280;5563;52.296;6.806;2023-04-26T00:16:15;101779.78;;;2.37;79.46
26443;BME280;5563;52.296;6.806;2023-04-26T00:18:50;101782.41;;;2.37;79.09
26443;BME280;5563;52.296;6.806;2023-04-26T00:21:17;101780.72;;;2.36;78.70
26443;BME280;5563;52.296;6.806;2023-04-26T00:23:51;101778.25;;;2.30;79.17
26443;BME280;5563;52.296;6.806;2023-04-26T00:26:18;101776.50;;;2.30;79.06
26443;BME280;5563;52.296;6.806;2023-04-26T00:28:51;101764.59;;;2.18;78.97
26443;BME280;5563;52.296;6.806;2023-04-26T00:31:18;101779.31;;;2.24;78.99
26443;BME280;5563;52.296;6.806;2023-04-26T00:33:52;101771.53;;;2.21;79.16
26443;BME280;5563;52.296;6.806;2023-04-26T00:36:19;101772.47;;;2.18;79.67
26443;BME280;5563;52.296;6.806;2023-04-26T00:38:53;101781.41;;;2.14;79.13
26443;BME280;5563;52.296;6.806;2023-04-26T00:41:20;101768.38;;;2.10;79.17
26443;BME280;5563;52.296;6.806;2023-04-26T00:43:54;101771.00;;;2.10;79.66
26443;BME280;5563;52.296;6.806;2023-04-26T00:46:28;101774.44;;;2.12;79.19
26443;BME280;5563;52.296;6.806;2023-04-26T00:48:56;101757.19;;;2.03;80.13
26443;BME280;5563;52.296;6.806;2023-04-26T00:51:30;101745.91;;;2.00;80.31
26443;BME280;5563;52.296;6.806;2023-04-26T00:53:58;101760.59;;;2.07;80.64
26443;BME280;5563;52.296;6.806;2023-04-26T00:56:31;101759.81;;;2.03;80.29
26443;BME280;5563;52.296;6.806;2023-04-26T00:58:59;101761.47;;;2.06;80.46
26443;BME280;5563;52.296;6.806;2023-04-26T01:01:34;101762.34;;;2.06;79.59
26443;BME280;5563;52.296;6.806;2023-04-26T01:04:01;101758.94;;;2.03;79.54
26443;BME280;5563;52.296;6.806;2023-04-26T01:06:35;101762.50;;;2.02;79.64
26443;BME280;5563;52.296;6.806;2023-04-26T01:09:04;101748.72;;;1.94;80.36
26443;BME280;5563;52.296;6.806;2023-04-26T01:11:54;101753.91;;;1.95;80.33
26443;BME280;5563;52.296;6.806;2023-04-26T01:14:23;101748.00;;;1.89;80.14
26443;BME280;5563;52.296;6.806;2023-04-26T01:16:57;101760.06;;;1.96;79.82
26443;BME280;5563;52.296;6.806;2023-04-26T01:19:24;101761.03;;;1.92;79.95
26443;BME280;5563;52.296;6.806;2023-04-26T01:21:58;101756.75;;;1.89;81.07
26443;BME280;5563;52.296;6.806;2023-04-26T01:24:33;101762.84;;;1.90;80.92
26443;BME280;5563;52.296;6.806;2023-04-26T01:27:01;101765.53;;;1.88;80.64
26443;BME280;5563;52.296;6.806;2023-04-26T01:29:36;101768.22;;;1.87;80.45
26443;BME280;5563;52.296;6.806;2023-04-26T01:32:03;101749.25;;;1.77;80.86
26443;BME280;5563;52.296;6.806;2023-04-26T01:34:39;101763.94;;;1.84;80.54
26443;BME280;5563;52.296;6.806;2023-04-26T01:37:09;101763.94;;;1.83;80.98
26443;BME280;5563;52.296;6.806;2023-04-26T01:39:43;101769.22;;;1.83;81.37
26443;BME280;5563;52.296;6.806;2023-04-26T01:42:10;101767.50;;;1.82;80.89
26443;BME280;5563;52.296;6.806;2023-04-26T01:44:46;101754.56;;;1.74;80.87
26443;BME280;5563;52.296;6.806;2023-04-26T01:47:13;101764.22;;;1.75;80.72
26443;BME280;5563;52.296;6.806;2023-04-26T01:49:46;101762.53;;;1.73;81.50
26443;BME280;5563;52.296;6.806;2023-04-26T01:52:20;101771.28;;;1.73;81.83
26443;BME280;5563;52.296;6.806;2023-04-26T01:54:53;101766.97;;;1.71;82.24
26443;BME280;5563;52.296;6.806;2023-04-26T01:57:19;101780.16;;;1.69;81.53
26443;BME280;5563;52.296;6.806;2023-04-26T01:59:53;101755.16;;;1.55;82.07
26443;BME280;5563;52.296;6.806;2023-04-26T02:02:21;101766.22;;;1.66;81.44
26443;BME280;5563;52.296;6.806;2023-04-26T02:04:55;101773.34;;;1.62;80.63
26443;BME280;5563;52.296;6.806;2023-04-26T02:07:29;101757.75;;;1.56;81.18
26443;BME280;5563;52.296;6.806;2023-04-26T02:10:08;101765.72;;;1.53;81.09
26443;BME280;5563;52.296;6.806;2023-04-26T02:12:42;101762.47;;;1.45;81.72
26443;BME280;5563;52.296;6.806;2023-04-26T02:15:15;101767.63;;;1.48;82.01
26443;BME280;5563;52.296;6.806;2023-04-26T02:17:49;101774.59;;;1.49;81.93
26443;BME280;5563;52.296;6.806;2023-04-26T02:20:16;101775.47;;;1.50;81.89
26443;BME280;5563;52.296;6.806;2023-04-26T02:22:50;101778.97;;;1.50;82.46
26443;BME280;5563;52.296;6.806;2023-04-26T02:25:17;101775.38;;;1.53;82.19
26443;BME280;5563;52.296;6.806;2023-04-26T02:27:50;101771.03;;;1.52;82.58
26443;BME280;5563;52.296;6.806;2023-04-26T02:30:17;101769.34;;;1.49;82.76
26443;BME280;5563;52.296;6.806;2023-04-26T02:32:55;101746.09;;;1.36;82.45
26443;BME280;5563;52.296;6.806;2023-04-26T02:35:22;101758.31;;;1.38;82.61
26443;BME280;5563;52.296;6.806;2023-04-26T02:37:56;101760.13;;;1.36;82.15
26443;BME280;5563;52.296;6.806;2023-04-26T02:40:29;101771.47;;;1.37;81.60
26443;BME280;5563;52.296;6.806;2023-04-26T02:42:56;101757.66;;;1.30;81.85
26443;BME280;5563;52.296;6.806;2023-04-26T02:45:29;101758.38;;;1.35;82.27
26443;BME280;5563;52.296;6.806;2023-04-26T02:47:56;101757.38;;;1.39;82.10
26443;BME280;5563;52.296;6.806;2023-04-26T02:50:29;101763.31;;;1.47;81.53
26443;BME280;5563;52.296;6.806;2023-04-26T02:53:02;101771.97;;;1.49;81.38
26443;BME280;5563;52.296;6.806;2023-04-26T02:55:37;101752.03;;;1.42;81.07
26443;BME280;5563;52.296;6.806;2023-04-26T02:58:04;101751.25;;;1.39;81.31
26443;BME280;5563;52.296;6.806;2023-04-26T03:00:38;101768.50;;;1.49;81.46
26443;BME280;5563;52.296;6.806;2023-04-26T03:03:05;101775.41;;;1.51;81.74
26443;BME280;5563;52.296;6.806;2023-04-26T03:05:38;101770.16;;;1.51;82.20
26443;BME280;5563;52.296;6.806;2023-04-26T03:08:15;101767.47;;;1.54;82.76
26443;BME280;5563;52.296;6.806;2023-04-26T03:10:48;101752.78;;;1.47;82.96
26443;BME280;5563;52.296;6.806;2023-04-26T03:13:24;101755.28;;;1.52;83.41
26443;BME280;5563;52.296;6.806;2023-04-26T03:15:51;101763.00;;;1.56;83.25
26443;BME280;5563;52.296;6.806;2023-04-26T03:18:25;101753.50;;;1.52;83.64
26443;BME280;5563;52.296;6.806;2023-04-26T03:20:51;101765.41;;;1.64;83.75
26443;BME280;5563;52.296;6.806;2023-04-26T03:23:25;101761.91;;;1.63;83.73
26443;BME280;5563;52.296;6.806;2023-04-26T03:25:58;101747.28;;;1.55;82.93
26443;BME280;5563;52.296;6.806;2023-04-26T03:28:31;101754.22;;;1.57;83.52
26443;BME280;5563;52.296;6.806;2023-04-26T03:30:58;101748.09;;;1.57;83.07
26443;BME280;5563;52.296;6.806;2023-04-26T03:33:31;101744.75;;;1.52;82.59
26443;BME280;5563;52.296;6.806;2023-04-26T03:35:58;101755.88;;;1.60;83.02
26443;BME280;5563;52.296;6.806;2023-04-26T03:38:37;101751.59;;;1.57;83.30
26443;BME280;5563;52.296;6.806;2023-04-26T03:41:12;101743.06;;;1.49;83.15
26443;BME280;5563;52.296;6.806;2023-04-26T03:43:45;101754.41;;;1.51;82.72
26443;BME280;5563;52.296;6.806;2023-04-26T03:46:12;101745.03;;;1.43;82.98
26443;BME280;5563;52.296;6.806;2023-04-26T03:48:47;101747.66;;;1.43;83.13
26443;BME280;5563;52.296;6.806;2023-04-26T03:51:14;101749.50;;;1.39;83.51
26443;BME280;5563;52.296;6.806;2023-04-26T03:53:47;101736.69;;;1.29;83.82
26443;BME280;5563;52.296;6.806;2023-04-26T03:56:21;101747.97;;;1.32;83.71
26443;BME280;5563;52.296;6.806;2023-04-26T03:58:48;101744.59;;;1.27;83.25
26443;BME280;5563;52.296;6.806;2023-04-26T04:01:21;101749.91;;;1.26;83.44
26443;BME280;5563;52.296;6.806;2023-04-26T04:03:48;101738.75;;;1.18;83.37
26443;BME280;5563;52.296;6.806;2023-04-26T04:06:21;101747.41;;;1.21;83.21
26443;BME280;5563;52.296;6.806;2023-04-26T04:08:48;101743.94;;;1.19;83.10
26443;BME280;5563;52.296;6.806;2023-04-26T04:11:28;101738.94;;;1.12;83.19
26443;BME280;5563;52.296;6.806;2023-04-26T04:14:01;101751.91;;;1.16;83.46
26443;BME280;5563;52.296;6.806;2023-04-26T04:16:28;101743.25;;;1.13;83.55
26443;BME280;5563;52.296;6.806;2023-04-26T04:19:02;101743.38;;;1.09;83.87
26443;BME280;5563;52.296;6.806;2023-04-26T04:21:29;101754.69;;;1.12;83.48
26443;BME280;5563;52.296;6.806;2023-04-26T04:24:04;101759.97;;;1.10;83.47
26443;BME280;5563;52.296;6.806;2023-04-26T04:26:38;101744.47;;;1.01;83.85
26443;BME280;5563;52.296;6.806;2023-04-26T04:29:05;101755.56;;;1.10;83.96
26443;BME280;5563;52.296;6.806;2023-04-26T04:31:41;101757.31;;;1.10;83.97
26443;BME280;5563;52.296;6.806;2023-04-26T04:34:14;101755.56;;;1.10;83.75
26443;BME280;5563;52.296;6.806;2023-04-26T04:36:49;101746.09;;;1.05;83.56
26443;BME280;5563;52.296;6.806;2023-04-26T04:39:23;101754.66;;;1.13;84.02
26443;BME280;5563;52.296;6.806;2023-04-26T04:41:50;101761.50;;;1.19;83.94
26443;BME280;5563;52.296;6.806;2023-04-26T04:44:23;101766.56;;;1.25;84.27
26443;BME280;5563;52.296;6.806;2023-04-26T04:46:59;101737.03;;;1.17;83.81
26443;BME280;5563;52.296;6.806;2023-04-26T04:49:33;101763.63;;;1.35;84.47
26443;BME280;5563;52.296;6.806;2023-04-26T04:52:00;101766.88;;;1.45;84.71
26443;BME280;5563;52.296;6.806;2023-04-26T04:54:33;101759.81;;;1.47;84.62
26443;BME280;5563;52.296;6.806;2023-04-26T04:57:00;101751.91;;;1.47;84.55
26443;BME280;5563;52.296;6.806;2023-04-26T04:59:34;101757.69;;;1.59;84.54
26443;BME280;5563;52.296;6.806;2023-04-26T05:02:01;101777.47;;;1.71;84.04
26443;BME280;5563;52.296;6.806;2023-04-26T05:04:34;101754.63;;;1.73;84.52
26443;BME280;5563;52.296;6.806;2023-04-26T05:07:01;101762.13;;;1.85;84.88
26443;BME280;5563;52.296;6.806;2023-04-26T05:09:43;101767.19;;;1.92;84.44
26443;BME280;5563;52.296;6.806;2023-04-26T05:12:11;101771.28;;;2.01;84.62
26443;BME280;5563;52.296;6.806;2023-04-26T05:14:44;101771.09;;;2.07;84.65
26443;BME280;5563;52.296;6.806;2023-04-26T05:17:17;101782.09;;;2.19;85.17
26443;BME280;5563;52.296;6.806;2023-04-26T05:19:44;101762.06;;;2.15;85.20
26443;BME280;5563;52.296;6.806;2023-04-26T05:22:18;101783.28;;;2.37;85.30
26443;BME280;5563;52.296;6.806;2023-04-26T05:24:47;101776.91;;;2.44;85.40
26443;BME280;5563;52.296;6.806;2023-04-26T05:27:21;101769.56;;;2.54;85.76
26443;BME280;5563;52.296;6.806;2023-04-26T05:29:48;101770.88;;;2.67;85.55
26443;BME280;5563;52.296;6.806;2023-04-26T05:32:21;101775.53;;;2.85;85.04
26443;BME280;5563;52.296;6.806;2023-04-26T05:34:48;101773.59;;;2.90;84.63
26443;BME280;5563;52.296;6.806;2023-04-26T05:37:21;101786.34;;;3.02;84.58
26443;BME280;5563;52.296;6.806;2023-04-26T05:39:48;101785.38;;;3.04;85.06
26443;BME280;5563;52.296;6.806;2023-04-26T05:42:21;101795.59;;;3.13;84.96
26443;BME280;5563;52.296;6.806;2023-04-26T05:44:48;101795.34;;;3.21;84.88
26443;BME280;5563;52.296;6.806;2023-04-26T05:47:21;101802.81;;;3.33;84.53
26443;BME280;5563;52.296;6.806;2023-04-26T05:49:54;101799.88;;;3.41;84.02
26443;BME280;5563;52.296;6.806;2023-04-26T05:52:21;101797.78;;;3.50;84.36
26443;BME280;5563;52.296;6.806;2023-04-26T05:54:54;101798.25;;;3.61;84.20
26443;BME280;5563;52.296;6.806;2023-04-26T05:57:21;101788.25;;;3.69;84.15
26443;BME280;5563;52.296;6.806;2023-04-26T05:59:54;101778.56;;;3.70;83.37
26443;BME280;5563;52.296;6.806;2023-04-26T06:02:21;101797.38;;;3.84;83.41
26443;BME280;5563;52.296;6.806;2023-04-26T06:04:54;101798.91;;;3.89;83.01
26443;BME280;5563;52.296;6.806;2023-04-26T06:07:23;101806.47;;;3.98;82.78
26443;BME280;5563;52.296;6.806;2023-04-26T06:09:56;101782.06;;;3.93;82.72
26443;BME280;5563;52.296;6.806;2023-04-26T06:12:29;101810.53;;;4.07;82.71
26443;BME280;5563;52.296;6.806;2023-04-26T06:15:03;101808.59;;;4.12;82.20
26443;BME280;5563;52.296;6.806;2023-04-26T06:17:30;101795.56;;;4.07;82.26
26443;BME280;5563;52.296;6.806;2023-04-26T06:20:04;101801.47;;;4.14;81.69
26443;BME280;5563;52.296;6.806;2023-04-26T06:22:32;101803.56;;;4.27;81.49
26443;BME280;5563;52.296;6.806;2023-04-26T06:25:06;101816.16;;;4.43;81.32
26443;BME280;5563;52.296;6.806;2023-04-26T06:27:40;101827.97;;;4.56;80.85
26443;BME280;5563;52.296;6.806;2023-04-26T06:30:08;101792.91;;;4.52;81.11
26443;BME280;5563;52.296;6.806;2023-04-26T06:32:41;101817.50;;;4.74;81.21
26443;BME280;5563;52.296;6.806;2023-04-26T06:35:08;101805.00;;;4.78;80.24
26443;BME280;5563;52.296;6.806;2023-04-26T06:37:42;101802.94;;;4.86;80.81
26443;BME280;5563;52.296;6.806;2023-04-26T06:40:09;101792.06;;;4.92;80.36
26443;BME280;5563;52.296;6.806;2023-04-26T06:42:43;101804.00;;;5.02;80.14
26443;BME280;5563;52.296;6.806;2023-04-26T06:45:10;101797.56;;;5.07;79.37
26443;BME280;5563;52.296;6.806;2023-04-26T06:47:44;101797.53;;;5.09;79.39
26443;BME280;5563;52.296;6.806;2023-04-26T06:50:11;101798.09;;;5.15;79.53
26443;BME280;5563;52.296;6.806;2023-04-26T06:52:45;101796.78;;;5.25;79.16
26443;BME280;5563;52.296;6.806;2023-04-26T06:55:12;101810.31;;;5.38;78.67
26443;BME280;5563;52.296;6.806;2023-04-26T06:57:46;101810.94;;;5.44;78.32
26443;BME280;5563;52.296;6.806;2023-04-26T07:00:13;101809.84;;;5.48;78.74
26443;BME280;5563;52.296;6.806;2023-04-26T07:02:40;101806.53;;;5.43;78.73
26443;BME280;5563;52.296;6.806;2023-04-26T07:05:14;101818.84;;;5.44;78.72
26443;BME280;5563;52.296;6.806;2023-04-26T07:07:42;101821.69;;;5.40;78.82
26443;BME280;5563;52.296;6.806;2023-04-26T07:10:21;101806.63;;;5.22;78.86
26443;BME280;5563;52.296;6.806;2023-04-26T07:12:48;101829.50;;;5.23;78.93
26443;BME280;5563;52.296;6.806;2023-04-26T07:15:22;101824.59;;;5.14;79.45
26443;BME280;5563;52.296;6.806;2023-04-26T07:17:49;101816.53;;;4.97;79.61
26443;BME280;5563;52.296;6.806;2023-04-26T07:20:22;101814.41;;;4.85;80.47
26443;BME280;5563;52.296;6.806;2023-04-26T07:22:50;101826.44;;;4.92;80.73
26443;BME280;5563;52.296;6.806;2023-04-26T07:25:23;101828.03;;;4.96;80.60
26443;BME280;5563;52.296;6.806;2023-04-26T07:27:56;101821.78;;;4.98;80.72
26443;BME280;5563;52.296;6.806;2023-04-26T07:30:24;101820.69;;;5.02;80.80
26443;BME280;5563;52.296;6.806;2023-04-26T07:32:57;101818.69;;;5.07;80.51
26443;BME280;5563;52.296;6.806;2023-04-26T07:35:24;101830.09;;;5.29;80.46
26443;BME280;5563;52.296;6.806;2023-04-26T07:37:57;101828.81;;;5.38;79.93
26443;BME280;5563;52.296;6.806;2023-04-26T07:40:24;101832.66;;;5.51;79.46
26443;BME280;5563;52.296;6.806;2023-04-26T07:42:58;101819.81;;;5.62;79.52
26443;BME280;5563;52.296;6.806;2023-04-26T07:45:28;101816.53;;;5.76;78.92
26443;BME280;5563;52.296;6.806;2023-04-26T07:48:02;101832.34;;;5.97;78.14
26443;BME280;5563;52.296;6.806;2023-04-26T07:50:29;101817.09;;;6.02;77.75
26443;BME280;5563;52.296;6.806;2023-04-26T07:53:03;101825.72;;;6.24;76.28
26443;BME280;5563;52.296;6.806;2023-04-26T07:55:30;101814.31;;;6.24;76.00
26443;BME280;5563;52.296;6.806;2023-04-26T07:58:03;101836.09;;;6.47;75.74
26443;BME280;5563;52.296;6.806;2023-04-26T08:00:30;101830.94;;;6.63;74.63
26443;BME280;5563;52.296;6.806;2023-04-26T08:03:03;101835.31;;;6.81;74.29
26443;BME280;5563;52.296;6.806;2023-04-26T08:05:37;101833.47;;;7.00;73.50
26443;BME280;5563;52.296;6.806;2023-04-26T08:08:04;101831.28;;;7.08;72.38
26443;BME280;5563;52.296;6.806;2023-04-26T08:10:41;101835.66;;;7.09;72.00
26443;BME280;5563;52.296;6.806;2023-04-26T08:13:14;101836.41;;;7.11;73.01
26443;BME280;5563;52.296;6.806;2023-04-26T08:15:48;101834.72;;;7.10;73.47
26443;BME280;5563;52.296;6.806;2023-04-26T08:18:15;101837.63;;;7.06;72.02
26443;BME280;5563;52.296;6.806;2023-04-26T08:20:49;101844.16;;;6.99;71.82
26443;BME280;5563;52.296;6.806;2023-04-26T08:23:16;101837.75;;;6.86;71.76
26443;BME280;5563;52.296;6.806;2023-04-26T08:25:51;101843.97;;;6.85;72.04
26443;BME280;5563;52.296;6.806;2023-04-26T08:28:18;101840.41;;;6.86;71.83
26443;BME280;5563;52.296;6.806;2023-04-26T08:30:45;101843.50;;;6.94;72.67
26443;BME280;5563;52.296;6.806;2023-04-26T08:33:20;101842.06;;;7.05;71.09
26443;BME280;5563;52.296;6.806;2023-04-26T08:35:53;101834.50;;;7.15;70.28
26443;BME280;5563;52.296;6.806;2023-04-26T08:38:27;101843.69;;;7.25;70.09
26443;BME280;5563;52.296;6.806;2023-04-26T08:40:57;101842.44;;;7.32;69.01
26443;BME280;5563;52.296;6.806;2023-04-26T08:43:32;101842.03;;;7.22;70.16
26443;BME280;5563;52.296;6.806;2023-04-26T08:46:01;101856.09;;;7.24;68.53
26443;BME280;5563;52.296;6.806;2023-04-26T08:48:39;101855.91;;;7.27;69.24
26443;BME280;5563;52.296;6.806;2023-04-26T08:51:07;101854.66;;;7.34;67.13
26443;BME280;5563;52.296;6.806;2023-04-26T08:53:42;101862.41;;;7.39;67.66
26443;BME280;5563;52.296;6.806;2023-04-26T08:56:13;101859.03;;;7.52;68.31
26443;BME280;5563;52.296;6.806;2023-04-26T08:58:46;101860.66;;;7.72;68.17
26443;BME280;5563;52.296;6.806;2023-04-26T09:01:14;101862.81;;;7.81;65.90
26443;BME280;5563;52.296;6.806;2023-04-26T09:03:48;101863.09;;;7.92;65.54
26443;BME280;5563;52.296;6.806;2023-04-26T09:06:23;101858.91;;;8.04;64.61
26443;BME280;5563;52.296;6.806;2023-04-26T09:09:05;101845.50;;;8.07;65.21
26443;BME280;5563;52.296;6.806;2023-04-26T09:11:52;101849.47;;;8.31;63.87
26443;BME280;5563;52.296;6.806;2023-04-26T09:14:26;101848.69;;;8.44;61.70
26443;BME280;5563;52.296;6.806;2023-04-26T09:16:54;101846.22;;;8.41;62.57
26443;BME280;5563;52.296;6.806;2023-04-26T09:19:38;101843.66;;;8.55;61.44
26443;BME280;5563;52.296;6.806;2023-04-26T09:22:12;101846.91;;;8.60;63.10
26443;BME280;5563;52.296;6.806;2023-04-26T09:24:46;101850.09;;;8.67;61.04
26443;BME280;5563;52.296;6.806;2023-04-26T09:27:35;101851.19;;;8.63;61.03
26443;BME280;5563;52.296;6.806;2023-04-26T09:30:07;101856.94;;;8.55;61.31
26443;BME280;5563;52.296;6.806;2023-04-26T09:32:54;101850.75;;;8.39;61.50
26443;BME280;5563;52.296;6.806;2023-04-26T09:35:26;101852.22;;;8.29;60.79
26443;BME280;5563;52.296;6.806;2023-04-26T09:40:48;101849.91;;;7.91;60.29
26443;BME280;5563;52.296;6.806;2023-04-26T09:43:21;101854.25;;;7.76;61.54
26443;BME280;5563;52.296;6.806;2023-04-26T09:45:50;101841.31;;;7.53;62.27
26443;BME280;5563;52.296;6.806;2023-04-26T09:48:28;101835.72;;;7.42;63.59
26443;BME280;5563;52.296;6.806;2023-04-26T09:51:09;101855.22;;;7.41;63.48
26443;BME280;5563;52.296;6.806;2023-04-26T09:53:46;101835.81;;;7.23;64.36
26443;BME280;5563;52.296;6.806;2023-04-26T09:56:22;101833.38;;;7.19;64.11
26443;BME280;5563;52.296;6.806;2023-04-26T09:58:57;101853.66;;;7.37;64.53
26443;BME280;5563;52.296;6.806;2023-04-26T10:01:30;101855.94;;;7.44;63.88
26443;BME280;5563;52.296;6.806;2023-04-26T10:04:05;101824.09;;;7.44;63.56
26443;BME280;5563;52.296;6.806;2023-04-26T10:06:39;101845.19;;;7.63;61.53
26443;BME280;5563;52.296;6.806;2023-04-26T10:09:13;101845.59;;;7.73;61.57
26443;BME280;5563;52.296;6.806;2023-04-26T10:11:53;101844.31;;;7.80;62.07
26443;BME280;5563;52.296;6.806;2023-04-26T10:14:28;101844.59;;;7.91;61.97
26443;BME280;5563;52.296;6.806;2023-04-26T10:17:03;101837.34;;;7.94;60.94
26443;BME280;5563;52.296;6.806;2023-04-26T10:19:39;101849.84;;;8.08;61.37
26443;BME280;5563;52.296;6.806;2023-04-26T10:22:11;101829.69;;;8.04;59.69
26443;BME280;5563;52.296;6.806;2023-04-26T10:24:47;101842.16;;;8.03;59.32
26443;BME280;5563;52.296;6.806;2023-04-26T10:27:14;101837.16;;;7.97;61.06
26443;BME280;5563;52.296;6.806;2023-04-26T10:32:22;101844.94;;;7.85;61.66
26443;BME280;5563;52.296;6.806;2023-04-26T10:35:10;101845.63;;;7.88;61.75
26443;BME280;5563;52.296;6.806;2023-04-26T10:40:39;101834.44;;;7.66;60.78
26443;BME280;5563;52.296;6.806;2023-04-26T10:45:47;101840.28;;;7.73;58.14
26443;BME280;5563;52.296;6.806;2023-04-26T10:59:14;101831.13;;;8.57;58.23
26443;BME280;5563;52.296;6.806;2023-04-26T11:01:55;101815.69;;;8.64;54.99
26443;BME280;5563;52.296;6.806;2023-04-26T11:04:51;101815.69;;;8.80;55.88
26443;BME280;5563;52.296;6.806;2023-04-26T11:07:37;101823.13;;;8.89;53.73
26443;BME280;5563;52.296;6.806;2023-04-26T11:10:21;101829.19;;;8.91;54.02
26443;BME280;5563;52.296;6.806;2023-04-26T11:13:02;101817.88;;;8.87;53.28
26443;BME280;5563;52.296;6.806;2023-04-26T11:15:30;101803.50;;;8.76;55.01
26443;BME280;5563;52.296;6.806;2023-04-26T11:18:04;101813.94;;;8.79;53.70
26443;BME280;5563;52.296;6.806;2023-04-26T11:20:32;101819.06;;;8.82;53.89
26443;BME280;5563;52.296;6.806;2023-04-26T11:23:06;101813.63;;;8.69;54.63
26443;BME280;5563;52.296;6.806;2023-04-26T11:25:34;101815.34;;;8.70;54.90
26443;BME280;5563;52.296;6.806;2023-04-26T11:28:11;101822.59;;;8.82;56.07
26443;BME280;5563;52.296;6.806;2023-04-26T11:30:38;101804.84;;;8.83;55.92
26443;BME280;5563;52.296;6.806;2023-04-26T11:33:17;101810.56;;;8.91;53.82
26443;BME280;5563;52.296;6.806;2023-04-26T11:35:52;101806.13;;;8.91;54.34
26443;BME280;5563;52.296;6.806;2023-04-26T11:38:24;101819.94;;;9.12;54.86
26443;BME280;5563;52.296;6.806;2023-04-26T11:41:00;101812.22;;;9.51;54.71
26443;BME280;5563;52.296;6.806;2023-04-26T11:43:35;101825.06;;;10.01;54.68
26443;BME280;5563;52.296;6.806;2023-04-26T11:46:06;101807.31;;;10.15;52.02
26443;BME280;5563;52.296;6.806;2023-04-26T11:48:40;101811.84;;;10.27;52.11
26443;BME280;5563;52.296;6.806;2023-04-26T11:51:07;101808.13;;;10.30;51.22
26443;BME280;5563;52.296;6.806;2023-04-26T11:53:42;101823.47;;;10.26;51.45
26443;BME280;5563;52.296;6.806;2023-04-26T11:56:17;101797.41;;;10.17;52.55
26443;BME280;5563;52.296;6.806;2023-04-26T11:58:51;101793.22;;;10.13;51.67
26443;BME280;5563;52.296;6.806;2023-04-26T12:01:26;101797.84;;;10.24;50.77
26443;BME280;5563;52.296;6.806;2023-04-26T12:04:00;101813.56;;;10.28;50.78
26443;BME280;5563;52.296;6.806;2023-04-26T12:06:41;101788.84;;;9.98;49.69
26443;BME280;5563;52.296;6.806;2023-04-26T12:09:30;101805.00;;;9.95;51.12
26443;BME280;5563;52.296;6.806;2023-04-26T12:12:10;101801.09;;;9.87;50.95
26443;BME280;5563;52.296;6.806;2023-04-26T12:14:46;101796.84;;;9.70;50.39
26443;BME280;5563;52.296;6.806;2023-04-26T12:17:13;101811.31;;;9.66;50.66
26443;BME280;5563;52.296;6.806;2023-04-26T12:19:48;101799.22;;;9.60;52.54
26443;BME280;5563;52.296;6.806;2023-04-26T12:22:19;101818.63;;;9.62;52.12
26443;BME280;5563;52.296;6.806;2023-04-26T12:25:03;101806.16;;;9.49;52.38
26443;BME280;5563;52.296;6.806;2023-04-26T12:27:37;101816.97;;;9.46;52.78
26443;BME280;5563;52.296;6.806;2023-04-26T12:30:05;101823.53;;;9.40;52.67
26443;BME280;5563;52.296;6.806;2023-04-26T12:32:39;101803.53;;;9.19;53.56
26443;BME280;5563;52.296;6.806;2023-04-26T12:35:07;101815.03;;;9.20;53.67
26443;BME280;5563;52.296;6.806;2023-04-26T12:37:41;101812.72;;;9.14;53.49
26443;BME280;5563;52.296;6.806;2023-04-26T12:40:08;101808.47;;;9.11;52.88
26443;BME280;5563;52.296;6.806;2023-04-26T12:42:42;101816.88;;;9.04;53.46
26443;BME280;5563;52.296;6.806;2023-04-26T12:45:09;101815.63;;;8.95;53.52
26443;BME280;5563;52.296;6.806;2023-04-26T12:47:44;101826.38;;;8.94;53.69
26443;BME280;5563;52.296;6.806;2023-04-26T12:50:13;101816.75;;;8.91;53.93
26443;BME280;5563;52.296;6.806;2023-04-26T12:52:50;101815.72;;;8.94;53.71
26443;BME280;5563;52.296;6.806;2023-04-26T12:55:17;101819.84;;;8.99;54.79
26443;BME280;5563;52.296;6.806;2023-04-26T12:57:58;101827.34;;;9.07;53.85
26443;BME280;5563;52.296;6.806;2023-04-26T13:00:31;101803.00;;;8.99;54.05
26443;BME280;5563;52.296;6.806;2023-04-26T13:03:04;101797.06;;;9.09;54.67
26443;BME280;5563;52.296;6.806;2023-04-26T13:05:37;101825.72;;;9.34;53.93
26443;BME280;5563;52.296;6.806;2023-04-26T13:08:11;101807.63;;;9.25;53.17
26443;BME280;5563;52.296;6.806;2023-04-26T13:10:52;101819.16;;;9.39;52.63
26443;BME280;5563;52.296;6.806;2023-04-26T13:13:18;101825.06;;;9.44;53.68
26443;BME280;5563;52.296;6.806;2023-04-26T13:16:08;101815.84;;;9.50;54.77
26443;BME280;5563;52.296;6.806;2023-04-26T13:18:36;101825.28;;;9.55;53.35
26443;BME280;5563;52.296;6.806;2023-04-26T13:21:09;101815.19;;;9.46;54.51
26443;BME280;5563;52.296;6.806;2023-04-26T13:23:36;101804.13;;;9.38;53.28
26443;BME280;5563;52.296;6.806;2023-04-26T13:26:09;101809.75;;;9.34;52.62
26443;BME280;5563;52.296;6.806;2023-04-26T13:28:36;101826.66;;;9.33;53.58
26443;BME280;5563;52.296;6.806;2023-04-26T13:31:09;101822.81;;;9.23;54.25
26443;BME280;5563;52.296;6.806;2023-04-26T13:33:37;101825.59;;;9.21;53.99
26443;BME280;5563;52.296;6.806;2023-04-26T13:36:10;101821.66;;;9.13;54.05
26443;BME280;5563;52.296;6.806;2023-04-26T13:38:37;101831.19;;;9.17;54.42
26443;BME280;5563;52.296;6.806;2023-04-26T13:41:13;101834.97;;;9.13;53.95
26443;BME280;5563;52.296;6.806;2023-04-26T13:43:46;101824.53;;;9.10;54.67
26443;BME280;5563;52.296;6.806;2023-04-26T13:46:13;101818.25;;;9.11;54.99
26443;BME280;5563;52.296;6.806;2023-04-26T13:48:46;101813.09;;;9.08;53.69
26443;BME280;5563;52.296;6.806;2023-04-26T13:51:13;101817.91;;;9.01;53.90
26443;BME280;5563;52.296;6.806;2023-04-26T13:53:47;101825.84;;;9.03;54.95
26443;BME280;5563;52.296;6.806;2023-04-26T13:56:14;101838.84;;;9.07;53.50
26443;BME280;5563;52.296;6.806;2023-04-26T13:58:54;101828.31;;;9.06;54.21